createdAt,value
2017-11-03T17:58:16.068Z,100615.23
2017-11-03T18:00:43.257Z,100611.52
2017-11-03T18:03:10.584Z,100609.69
2017-11-03T18:05:37.767Z,100610.02
2017-11-03T18:08:04.947Z,100605.05
2017-11-03T18:10:33.781Z,100607.19
2017-11-03T18:13:02.114Z,100606.72
2017-11-03T18:15:29.412Z,100604.11
2017-11-03T18:17:56.932Z,100609.28
2017-11-03T18:20:24.399Z,100599.25
2017-11-03T18:22:51.645Z,100601.44
2017-11-03T18:25:18.979Z,100598.77
2017-11-03T18:27:46.388Z,100603.11
2017-11-03T18:30:13.846Z,100600.48
2017-11-03T18:32:41.614Z,100600.48
2017-11-03T18:35:09.079Z,100592.58
2017-11-03T18:37:36.259Z,100599.59
2017-11-03T18:40:03.888Z,100594.78
2017-11-03T18:42:31.146Z,100599.95
2017-11-03T18:44:58.326Z,100596.86
2017-11-03T18:47:25.815Z,100596.45
2017-11-03T18:49:53.383Z,100599.39
2017-11-03T18:52:20.582Z,100595.09
2017-11-03T18:54:47.866Z,100593.70
2017-11-03T18:57:15.263Z,100594.53
2017-11-03T18:59:42.775Z,100594.53
2017-11-03T19:02:10.327Z,100593.64
2017-11-03T19:04:37.835Z,100585.75
2017-11-03T19:07:05.091Z,100589.67
2017-11-03T19:09:32.554Z,100590.03
2017-11-03T19:11:59.741Z,100588.30
2017-11-03T19:14:27.154Z,100581.72
2017-11-03T19:16:54.706Z,100589.09
2017-11-03T19:19:22.146Z,100591.28
2017-11-03T19:21:50.456Z,100590.81
2017-11-03T19:24:18.221Z,100587.73
2017-11-03T19:26:46.043Z,100587.67
2017-11-03T19:29:13.986Z,100594.62
2017-11-03T19:31:42.630Z,100593.27
2017-11-03T19:34:11.118Z,100586.25
2017-11-03T19:36:38.638Z,100593.20
2017-11-03T19:39:07.178Z,100587.14
2017-11-03T19:41:35.423Z,100592.31
2017-11-03T19:44:02.989Z,100589.23
2017-11-03T19:46:31.708Z,100587.98
2017-11-03T19:49:00.490Z,100583.12
2017-11-03T19:51:28.260Z,100578.78
2017-11-03T19:53:55.915Z,100577.89
2017-11-03T19:56:23.164Z,100573.05
2017-11-03T19:58:51.067Z,100579.20
2017-11-03T20:01:18.383Z,100584.75
2017-11-03T20:03:45.901Z,100583.86
2017-11-03T20:06:13.419Z,100584.64
2017-11-03T20:08:40.751Z,100580.36
2017-11-03T20:11:08.153Z,100581.03
2017-11-03T20:13:36.584Z,100576.22
2017-11-03T20:16:04.349Z,100576.22
2017-11-03T20:18:31.834Z,100578.78
2017-11-03T20:21:01.105Z,100579.20
2017-11-03T20:23:29.818Z,100571.36
2017-11-03T20:25:58.301Z,100573.97
2017-11-03T20:28:26.821Z,100571.30
2017-11-03T20:30:54.704Z,100566.55
2017-11-03T20:33:22.774Z,100563.46
2017-11-03T20:35:50.677Z,100563.41
2017-11-03T20:38:17.938Z,100566.44
2017-11-03T20:40:46.718Z,100562.10
2017-11-03T20:43:14.399Z,100570.78
2017-11-03T20:45:43.240Z,100571.19
2017-11-03T20:48:11.840Z,100568.52
2017-11-03T20:50:40.642Z,100564.61
2017-11-03T20:53:09.188Z,100564.98
2017-11-03T20:55:36.566Z,100563.21
2017-11-03T20:58:04.685Z,100564.98
2017-11-03T21:00:32.647Z,100560.55
2017-11-03T21:03:01.639Z,100560.95
2017-11-03T21:05:29.267Z,100563.52
2017-11-03T21:07:57.418Z,100561.32
2017-11-03T21:10:24.726Z,100556.51
2017-11-03T21:12:53.434Z,100562.16
2017-11-03T21:15:22.451Z,100556.88
2017-11-03T21:17:49.918Z,100556.88
2017-11-03T21:20:17.903Z,100555.15
2017-11-03T21:22:45.358Z,100551.17
2017-11-03T21:25:12.551Z,100545.47
2017-11-03T21:27:40.627Z,100544.58
2017-11-03T21:30:08.022Z,100543.27
2017-11-03T21:32:35.650Z,100541.49
2017-11-03T21:35:02.955Z,100540.19
2017-11-03T21:37:30.582Z,100534.91
2017-11-03T21:39:58.074Z,100534.48
2017-11-03T21:42:25.322Z,100527.06
2017-11-03T21:44:52.937Z,100533.18
2017-11-03T21:47:20.121Z,100532.29
2017-11-03T21:49:47.696Z,100525.70
2017-11-03T21:52:15.170Z,100526.12
2017-11-03T21:54:42.601Z,100525.70
2017-11-03T21:57:10.587Z,100513.94
2017-11-03T21:59:37.987Z,100521.78
2017-11-03T22:02:05.153Z,100520.36
2017-11-03T22:04:32.333Z,100515.05
2017-11-03T22:06:59.581Z,100514.93
2017-11-03T22:09:27.662Z,100511.54
2017-11-03T22:11:55.177Z,100514.63
2017-11-03T22:14:22.673Z,100516.77
2017-11-03T22:16:49.873Z,100511.95
2017-11-03T22:19:17.351Z,100511.91
2017-11-03T22:21:44.950Z,100510.65
2017-11-03T22:24:12.132Z,100510.53
2017-11-03T22:26:40.241Z,100501.92
2017-11-03T22:29:08.504Z,100510.12
2017-11-03T22:31:36.653Z,100506.09
2017-11-03T22:34:04.934Z,100503.89
2017-11-03T22:36:33.316Z,100506.50
2017-11-03T22:39:01.735Z,100506.14
2017-11-03T22:41:29.083Z,100499.25
2017-11-03T22:43:56.259Z,100501.39
2017-11-03T22:46:23.576Z,100500.50
2017-11-03T22:48:50.970Z,100502.28
2017-11-03T22:51:18.145Z,100500.08
2017-11-03T22:53:45.309Z,100504.42
2017-11-03T22:56:12.724Z,100512.27
2017-11-03T22:58:40.180Z,100517.02
2017-11-03T23:01:07.368Z,100507.53
2017-11-03T23:03:34.541Z,100508.48
2017-11-03T23:06:01.732Z,100499.91
2017-11-03T23:08:29.276Z,100496.47
2017-11-03T23:10:56.545Z,100499.97
2017-11-03T23:13:24.061Z,100501.58
2017-11-03T23:15:51.774Z,100494.57
2017-11-03T23:18:19.224Z,100495.94
2017-11-03T23:20:46.396Z,100495.98
2017-11-03T23:23:13.585Z,100495.58
2017-11-03T23:25:41.295Z,100497.77
2017-11-03T23:28:08.746Z,100491.23
